Time;durP1;ratioP1;P1;durP2;ratioP2;P2;SDS_P1;SDS_P2;PMS_P1;PMS_P2;Temp;Humidity;BMP_temperature;BMP_pressure;BME280_temperature;BME280_humidity;BME280_pressure;Samples;Min_cycle;Max_cycle;Signal;HPM_P1;HPM_P2
2023/04/09 00:01:04;;;;;;;16.10;11.80;;;;;;;9.53;62.44;100094.69;4984606;28;20210;-80
2023/04/09 00:03:30;;;;;;;12.13;10.75;;;;;;;9.49;62.45;100101.00;4998501;28;20571;-80
2023/04/09 00:05:56;;;;;;;13.53;10.70;;;;;;;9.45;62.50;100091.59;4993755;28;20211;-80
2023/04/09 00:08:22;;;;;;;13.67;11.03;;;;;;;9.39;62.58;100086.66;4997740;28;20205;-81
2023/04/09 00:10:52;;;;;;;14.43;12.02;;;;;;;9.33;62.97;100096.63;4994496;28;20246;-80
2023/04/09 00:13:18;;;;;;;12.23;10.40;;;;;;;9.25;63.05;100089.97;4995953;28;20210;-80
2023/04/09 00:15:44;;;;;;;15.17;10.90;;;;;;;9.21;63.00;100095.47;4990626;28;20195;-81
2023/04/09 00:18:10;;;;;;;13.43;10.93;;;;;;;9.15;63.33;100098.38;4993776;28;20585;-80
2023/04/09 00:20:35;;;;;;;13.30;11.30;;;;;;;9.08;63.40;100098.69;4992928;28;20897;-81
2023/04/09 00:23:01;;;;;;;11.73;10.53;;;;;;;8.99;63.34;100099.16;4995241;28;20257;-80
2023/04/09 00:25:27;;;;;;;18.73;11.80;;;;;;;8.91;63.66;100101.31;4988194;28;20213;-80
2023/04/09 00:27:54;;;;;;;16.80;12.00;;;;;;;8.79;64.02;100099.28;4992840;28;20203;-81
2023/04/09 00:30:20;;;;;;;14.02;11.27;;;;;;;8.68;64.18;100105.03;4992442;28;20207;-80
2023/04/09 00:32:46;;;;;;;14.98;11.43;;;;;;;8.60;64.48;100101.91;4978120;28;20911;-80
2023/04/09 00:35:11;;;;;;;12.93;10.80;;;;;;;8.55;64.55;100099.50;4975394;28;20692;-80
2023/04/09 00:37:37;;;;;;;14.93;11.80;;;;;;;8.46;64.68;100101.72;4989643;28;20222;-80
2023/04/09 00:40:03;;;;;;;15.10;11.10;;;;;;;8.31;64.88;100105.88;4978718;28;20211;-80
2023/04/09 00:42:32;;;;;;;13.60;11.52;;;;;;;8.24;64.99;100101.84;4975426;28;20793;-81
2023/04/09 00:44:58;;;;;;;13.30;12.10;;;;;;;8.13;65.36;100104.97;4988291;28;20571;-80
2023/04/09 00:47:26;;;;;;;12.57;11.27;;;;;;;8.02;65.43;100105.44;4984773;28;20915;-80
2023/04/09 00:49:51;;;;;;;10.50;9.40;;;;;;;7.95;65.66;100104.00;4991234;28;20215;-80
2023/04/09 00:52:17;;;;;;;13.67;11.70;;;;;;;7.92;65.85;100098.94;4996548;28;20251;-79
2023/04/09 00:54:42;;;;;;;11.43;10.23;;;;;;;7.90;65.83;100106.81;4994800;28;20249;-81
2023/04/09 00:57:10;;;;;;;13.43;12.03;;;;;;;7.88;65.92;100098.19;4989221;28;20761;-81
2023/04/09 00:59:35;;;;;;;11.63;10.48;;;;;;;7.85;66.00;100103.56;4978353;28;20229;-80
2023/04/09 01:02:01;;;;;;;16.30;11.30;;;;;;;7.85;65.95;100100.94;4986264;28;20228;-81
2023/04/09 01:04:26;;;;;;;11.37;10.33;;;;;;;7.82;65.94;100102.84;4992098;28;20218;-80
2023/04/09 01:07:08;;;;;;;19.03;12.13;;;;;;;7.79;66.04;100103.00;5008778;28;20219;-81
2023/04/09 01:09:38;;;;;;;11.15;10.00;;;;;;;7.75;66.06;100108.38;5006594;28;20233;-80
2023/04/09 01:12:31;;;;;;;22.40;10.60;;;;;;;7.72;66.10;100098.06;4992987;28;20297;-81
2023/04/09 01:15:12;;;;;;;13.93;10.70;;;;;;;7.68;66.12;100101.69;4992933;28;20250;-81
2023/04/09 01:17:49;;;;;;;11.75;9.90;;;;;;;7.66;66.17;100097.44;4991556;28;20207;-80
2023/04/09 01:20:27;;;;;;;13.30;11.02;;;;;;;7.63;66.13;100100.22;5001977;28;20226;-81
2023/04/09 01:22:53;;;;;;;11.05;9.90;;;;;;;7.57;66.38;100093.47;5006640;28;20241;-81
2023/04/09 01:25:38;;;;;;;13.52;10.23;;;;;;;7.51;66.40;100098.97;4988657;28;20226;-81
2023/04/09 01:28:26;;;;;;;12.02;9.43;;;;;;;7.42;66.66;100096.75;4990286;28;20223;-80
2023/04/09 01:31:00;;;;;;;13.02;9.77;;;;;;;7.34;66.71;100099.69;4996326;28;20245;-80
2023/04/09 01:33:28;;;;;;;9.98;9.00;;;;;;;7.30;66.93;100090.28;4996379;28;20216;-81
2023/04/09 01:35:55;;;;;;;10.80;9.60;;;;;;;7.26;67.09;100093.94;5008367;28;20229;-80
2023/04/09 01:38:22;;;;;;;11.75;9.30;;;;;;;7.24;66.81;100096.63;5012862;28;20246;-80
2023/04/09 01:40:49;;;;;;;10.43;8.25;;;;;;;7.21;66.97;100091.53;4996249;28;20222;-80
2023/04/09 01:43:16;;;;;;;9.27;8.43;;;;;;;7.16;67.23;100093.50;5000698;28;21177;-80
2023/04/09 01:45:44;;;;;;;8.48;7.60;;;;;;;7.13;67.00;100093.63;4998154;28;20255;-80
2023/04/09 01:48:11;;;;;;;11.10;8.80;;;;;;;7.05;66.88;100096.53;5001205;28;20220;-81
2023/04/09 01:50:36;;;;;;;10.35;9.10;;;;;;;6.99;67.01;100095.94;4999597;28;20218;-80
2023/04/09 01:53:02;;;;;;;8.77;7.50;;;;;;;6.91;67.52;100103.22;5001123;28;20587;-80
2023/04/09 01:55:28;;;;;;;11.45;9.43;;;;;;;6.85;67.22;100096.50;4984700;28;20226;-80
2023/04/09 01:57:53;;;;;;;10.70;8.93;;;;;;;6.82;67.31;100105.31;4996311;28;20224;-80
2023/04/09 02:00:19;;;;;;;8.43;7.63;;;;;;;6.80;67.30;100104.50;4981707;28;20226;-80
2023/04/09 02:02:53;;;;;;;11.83;9.57;;;;;;;6.77;67.53;100104.63;4996660;28;20264;-81
2023/04/09 02:05:22;;;;;;;15.32;10.77;;;;;;;6.80;67.93;100106.28;4977871;28;20578;-81
2023/04/09 02:07:53;;;;;;;9.38;8.38;;;;;;;6.79;67.75;100110.66;4993080;28;20227;-80
2023/04/09 02:10:23;;;;;;;11.75;7.95;;;;;;;6.77;67.45;100106.41;4994111;28;20310;-80
2023/04/09 02:12:50;;;;;;;9.73;8.60;;;;;;;6.76;67.51;100115.16;4982530;28;20295;-80
2023/04/09 02:15:17;;;;;;;9.07;7.72;;;;;;;6.72;67.70;100103.97;4982347;28;20299;-80
2023/04/09 02:17:43;;;;;;;9.10;7.35;;;;;;;6.69;67.67;100111.91;4993901;28;20218;-80
2023/04/09 02:20:09;;;;;;;8.43;7.53;;;;;;;6.63;67.51;100109.56;4996222;28;20232;-81
2023/04/09 02:22:34;;;;;;;7.03;6.37;;;;;;;6.59;67.44;100108.00;4982558;28;20262;-81
2023/04/09 02:25:00;;;;;;;7.73;6.73;;;;;;;6.57;67.57;100105.44;4980748;28;20214;-80
2023/04/09 02:27:25;;;;;;;6.80;6.07;;;;;;;6.56;67.57;100101.13;4996782;28;20244;-80
2023/04/09 02:29:50;;;;;;;7.23;6.47;;;;;;;6.56;67.57;100102.88;4994416;28;20225;-80
2023/04/09 02:32:16;;;;;;;9.57;7.67;;;;;;;6.54;67.33;100104.72;4996029;28;20277;-80
2023/04/09 02:34:41;;;;;;;8.03;7.23;;;;;;;6.50;67.51;100103.97;4994495;28;20439;-80
2023/04/09 02:37:07;;;;;;;7.53;5.73;;;;;;;6.44;67.69;100096.38;4998546;28;20237;-80
2023/04/09 02:39:32;;;;;;;10.10;7.50;;;;;;;6.37;67.76;100098.38;4989737;28;20251;-81
2023/04/09 02:41:58;;;;;;;7.80;7.00;;;;;;;6.32;67.68;100096.84;4996484;28;20803;-80
2023/04/09 02:44:25;;;;;;;9.15;6.88;;;;;;;6.27;67.94;100104.00;4993027;28;20223;-80
2023/04/09 02:46:51;;;;;;;7.63;6.93;;;;;;;6.24;67.72;100104.97;4993499;28;20234;-80
2023/04/09 02:49:17;;;;;;;8.03;7.13;;;;;;;6.23;68.04;100100.66;4994689;28;20242;-82
2023/04/09 02:51:43;;;;;;;11.30;6.40;;;;;;;6.21;67.77;100102.47;4978519;28;20485;-81
2023/04/09 02:54:08;;;;;;;8.00;6.63;;;;;;;6.20;67.96;100101.63;4989590;28;20225;-82
2023/04/09 02:56:34;;;;;;;8.60;7.03;;;;;;;6.21;67.83;100097.25;4975863;28;20227;-81
2023/04/09 02:58:59;;;;;;;7.50;6.07;;;;;;;6.22;67.82;100092.91;4985217;28;20238;-81
2023/04/09 03:01:25;;;;;;;9.33;6.77;;;;;;;6.23;67.61;100100.66;4988431;28;20240;-81
2023/04/09 03:03:50;;;;;;;7.23;6.53;;;;;;;6.20;67.74;100093.78;4954984;28;20259;-81
2023/04/09 03:06:17;;;;;;;8.53;6.53;;;;;;;6.16;67.44;100099.19;4991817;28;20816;-81
2023/04/09 03:08:42;;;;;;;8.95;6.63;;;;;;;6.10;67.48;100091.59;4980144;28;20297;-80
2023/04/09 03:11:08;;;;;;;10.03;8.00;;;;;;;6.01;67.77;100094.56;4988926;28;20244;-81
2023/04/09 03:13:33;;;;;;;10.20;8.37;;;;;;;5.87;68.02;100095.88;4992185;28;20288;-81
2023/04/09 03:15:59;;;;;;;9.17;7.20;;;;;;;5.76;68.11;100100.63;4993268;28;20227;-80
2023/04/09 03:18:25;;;;;;;10.95;6.93;;;;;;;5.67;68.38;100096.59;4993921;28;21070;-80
2023/04/09 03:20:51;;;;;;;9.73;7.80;;;;;;;5.61;68.26;100098.56;4995775;28;20213;-81
2023/04/09 03:23:17;;;;;;;8.97;7.17;;;;;;;5.58;68.23;100102.13;4982787;28;20220;-81
2023/04/09 03:25:45;;;;;;;9.45;8.43;;;;;;;5.57;68.44;100096.97;4996046;28;20213;-80
2023/04/09 03:28:14;;;;;;;9.30;7.43;;;;;;;5.57;68.01;100099.59;4981435;28;20205;-80
2023/04/09 03:30:43;;;;;;;9.10;7.30;;;;;;;5.56;68.27;100098.72;4979840;28;20807;-80
2023/04/09 03:33:09;;;;;;;7.30;6.60;;;;;;;5.57;67.89;100091.78;4986526;28;20287;-81
2023/04/09 03:35:44;;;;;;;10.18;8.90;;;;;;;5.61;68.30;100091.59;4993499;28;20454;-80
2023/04/09 03:38:11;;;;;;;8.23;7.05;;;;;;;5.63;68.63;100091.53;4980196;28;20205;-80
2023/04/09 03:40:36;;;;;;;12.83;6.90;;;;;;;5.64;68.34;100085.41;4979579;28;20212;-80
2023/04/09 03:43:03;;;;;;;8.45;7.65;;;;;;;5.64;68.30;100091.47;4980859;28;20217;-80
2023/04/09 03:45:30;;;;;;;7.32;6.20;;;;;;;5.64;68.34;100088.88;4979930;28;20300;-81
2023/04/09 03:48:07;;;;;;;9.57;8.02;;;;;;;5.65;68.05;100087.13;4983166;28;20240;-81
2023/04/09 03:50:40;;;;;;;7.47;6.47;;;;;;;5.66;67.63;100087.06;4988400;28;20686;-81
2023/04/09 03:53:07;;;;;;;7.05;6.35;;;;;;;5.64;68.11;100088.03;4981359;28;20767;-80
2023/04/09 03:55:33;;;;;;;7.07;6.37;;;;;;;5.65;67.89;100084.53;4979629;28;20220;-80
2023/04/09 03:58:02;;;;;;;7.05;5.90;;;;;;;5.65;68.09;100080.16;4979461;28;20214;-80
2023/04/09 04:00:30;;;;;;;9.13;7.55;;;;;;;5.64;68.17;100086.25;4977033;28;20279;-80
2023/04/09 04:03:14;;;;;;;9.25;6.07;;;;;;;5.64;67.84;100090.63;4976511;28;20208;-80
2023/04/09 04:06:09;;;;;;;8.60;7.70;;;;;;;5.63;68.29;100083.72;4973801;28;20546;-80
2023/04/09 04:08:59;;;;;;;7.97;7.18;;;;;;;5.56;68.51;100088.28;4977161;28;20477;-80
2023/04/09 04:11:33;;;;;;;7.82;6.95;;;;;;;5.50;68.11;100088.50;4980100;28;20263;-80
2023/04/09 04:13:58;;;;;;;8.77;7.97;;;;;;;5.40;68.31;100087.13;4981385;28;20249;-80
2023/04/09 04:16:25;;;;;;;9.25;7.45;;;;;;;5.35;68.42;100091.63;4978733;28;20217;-81
2023/04/09 04:18:51;;;;;;;11.38;10.27;;;;;;;5.33;68.53;100096.91;4994385;28;20638;-80
2023/04/09 04:21:17;;;;;;;15.33;11.10;;;;;;;5.30;68.55;100081.41;4981035;28;20229;-81
2023/04/09 04:23:47;;;;;;;9.98;9.10;;;;;;;5.30;68.35;100094.44;4979022;28;20221;-80
2023/04/09 04:26:17;;;;;;;12.07;8.88;;;;;;;5.31;68.30;100101.31;4979473;28;20228;-80
2023/04/09 04:28:43;;;;;;;8.47;7.30;;;;;;;5.31;68.25;100094.34;4978972;28;20223;-81
2023/04/09 04:31:13;;;;;;;11.73;7.60;;;;;;;5.31;68.61;100096.97;4976388;28;20219;-80
2023/04/09 04:33:40;;;;;;;10.88;9.50;;;;;;;5.32;68.60;100096.06;4970481;28;20457;-80
2023/04/09 04:36:11;;;;;;;9.60;8.63;;;;;;;5.32;68.34;100103.88;4976205;28;20206;-80
2023/04/09 04:38:44;;;;;;;11.75;7.82;;;;;;;5.31;68.74;100106.53;4976311;28;20221;-80
2023/04/09 04:41:18;;;;;;;7.85;6.95;;;;;;;5.29;68.33;100097.91;4978302;28;20224;-80
2023/04/09 04:43:51;;;;;;;9.65;7.82;;;;;;;5.27;68.33;100113.59;4961604;28;20219;-80
2023/04/09 04:46:21;;;;;;;9.10;7.03;;;;;;;5.24;68.52;100100.69;4976979;28;20226;-81
2023/04/09 04:48:47;;;;;;;7.17;6.43;;;;;;;5.22;68.45;100114.66;4973691;28;20219;-81
2023/04/09 04:51:13;;;;;;;8.00;7.20;;;;;;;5.20;68.19;100113.88;4977819;28;20222;-81
2023/04/09 04:53:44;;;;;;;10.35;6.50;;;;;;;5.18;68.69;100113.91;4964438;28;20218;-80
2023/04/09 04:56:13;;;;;;;6.88;5.97;;;;;;;5.15;68.23;100114.00;4973054;28;20222;-81
2023/04/09 04:58:41;;;;;;;6.07;5.20;;;;;;;5.13;68.44;100122.78;4976057;28;20260;-81
2023/04/09 05:01:07;;;;;;;9.18;6.90;;;;;;;5.08;68.50;100112.53;4978168;28;20758;-81
2023/04/09 05:03:32;;;;;;;6.83;6.00;;;;;;;5.02;68.50;100115.31;4975188;28;20223;-80
2023/04/09 05:06:17;;;;;;;6.82;5.90;;;;;;;4.93;68.33;100113.88;4989340;28;20854;-80
2023/04/09 05:08:44;;;;;;;10.32;7.38;;;;;;;4.84;68.54;100116.78;4977006;28;21314;-80
2023/04/09 05:11:15;;;;;;;8.70;5.53;;;;;;;4.78;68.69;100115.22;5041473;23;20610;-83
2023/04/09 05:13:41;;;;;;;8.32;7.50;;;;;;;4.82;68.66;100121.16;5024743;28;20216;-85
2023/04/09 05:16:16;;;;;;;7.65;6.20;;;;;;;5.07;68.27;100116.00;5037276;28;20829;-83
2023/04/09 05:18:42;;;;;;;7.85;7.05;;;;;;;5.45;67.45;100114.72;5038374;28;20210;-83
2023/04/09 05:21:08;;;;;;;7.93;6.07;;;;;;;5.89;66.47;100114.94;5035002;28;20221;-84
2023/04/09 05:23:34;;;;;;;8.03;6.60;;;;;;;6.24;65.39;100110.19;5047279;28;20213;-83
2023/04/09 05:25:59;;;;;;;6.17;5.67;;;;;;;6.37;64.76;100114.03;5044604;28;20452;-83
2023/04/09 05:28:33;;;;;;;9.85;6.22;;;;;;;6.31;64.43;100111.66;5037445;28;20194;-85
2023/04/09 05:31:11;;;;;;;10.20;6.80;;;;;;;6.13;64.40;100115.81;5033954;28;20202;-84
2023/04/09 05:33:41;;;;;;;6.82;5.93;;;;;;;5.93;64.82;100118.25;5036150;28;20719;-86
2023/04/09 05:36:15;;;;;;;9.10;8.00;;;;;;;5.77;65.63;100117.97;5034074;28;20524;-83
2023/04/09 05:38:41;;;;;;;8.13;7.35;;;;;;;5.63;66.11;100109.78;5048144;28;20229;-85
2023/04/09 05:41:07;;;;;;;6.43;5.85;;;;;;;5.53;66.12;100114.47;5030546;28;20989;-83
2023/04/09 05:43:41;;;;;;;7.13;6.40;;;;;;;5.45;66.10;100117.31;5031512;28;20195;-84
2023/04/09 05:46:07;;;;;;;6.72;6.00;;;;;;;5.42;66.25;100116.59;5048177;28;20203;-86
2023/04/09 05:48:35;;;;;;;7.43;5.90;;;;;;;5.41;66.56;100113.13;5033973;28;20203;-83
2023/04/09 05:51:01;;;;;;;7.00;5.93;;;;;;;5.36;66.47;100115.03;5035788;28;20206;-84
2023/04/09 05:53:28;;;;;;;7.00;6.03;;;;;;;5.29;66.26;100119.63;5029573;28;20203;-85
2023/04/09 05:55:53;;;;;;;7.70;6.40;;;;;;;5.20;66.83;100122.53;5022230;28;20210;-86
2023/04/09 05:58:23;;;;;;;7.78;6.93;;;;;;;5.21;66.83;100115.56;5058026;28;20219;-86
2023/04/09 06:00:50;;;;;;;8.20;7.40;;;;;;;5.43;66.79;100107.88;5031800;28;20868;-84
2023/04/09 06:03:16;;;;;;;9.90;7.57;;;;;;;6.05;65.80;100122.19;5045860;28;21085;-84
2023/04/09 06:05:43;;;;;;;9.97;7.50;;;;;;;6.79;64.19;100112.41;5036694;28;20821;-87
2023/04/09 06:08:09;;;;;;;6.85;6.15;;;;;;;7.53;62.62;100112.81;5038717;28;20202;-84
2023/04/09 06:10:34;;;;;;;10.57;7.33;;;;;;;8.10;61.01;100115.53;5034271;28;20226;-84
2023/04/09 06:13:02;;;;;;;8.68;6.38;;;;;;;8.59;59.93;100110.72;5037625;28;20193;-84
2023/04/09 06:15:28;;;;;;;9.00;7.30;;;;;;;9.08;58.98;100111.78;5030159;28;20224;-88
2023/04/09 06:17:54;;;;;;;10.30;6.10;;;;;;;9.58;58.08;100109.31;5048085;28;20217;-85
2023/04/09 06:20:20;;;;;;;8.17;6.10;;;;;;;10.15;56.96;100110.66;5055631;28;20879;-83
2023/04/09 06:22:45;;;;;;;8.35;6.20;;;;;;;10.76;55.73;100114.34;5054235;28;20328;-86
2023/04/09 06:25:11;;;;;;;7.90;7.00;;;;;;;11.34;54.32;100114.53;5057153;28;20292;-86
2023/04/09 06:27:36;;;;;;;8.80;7.40;;;;;;;11.90;53.48;100102.44;5040037;28;20237;-83
2023/04/09 06:30:02;;;;;;;6.93;5.77;;;;;;;12.44;52.06;100101.72;5065407;28;20284;-85
2023/04/09 06:32:27;;;;;;;8.00;6.20;;;;;;;12.61;51.53;100099.72;5067420;28;20312;-86
2023/04/09 06:34:53;;;;;;;7.40;6.60;;;;;;;12.40;51.07;100112.47;5066643;28;20275;-83
2023/04/09 06:37:18;;;;;;;8.77;7.00;;;;;;;12.00;50.79;100105.38;5068110;28;20271;-83
2023/04/09 06:39:43;;;;;;;7.77;6.80;;;;;;;11.50;51.41;100105.69;5064500;28;20236;-85
2023/04/09 06:42:09;;;;;;;7.90;6.70;;;;;;;11.06;51.94;100114.38;5063354;28;20209;-90
2023/04/09 06:44:53;;;;;;;10.43;6.53;;;;;;;10.70;52.93;100113.84;5042474;28;20204;-83
2023/04/09 06:47:19;;;;;;;7.83;6.90;;;;;;;10.42;53.30;100117.97;5063189;28;20190;-83
2023/04/09 06:49:44;;;;;;;7.90;6.47;;;;;;;10.19;53.63;100117.44;5062158;28;20681;-83
2023/04/09 06:52:10;;;;;;;8.40;6.80;;;;;;;10.03;54.04;100121.81;5061539;28;20216;-83
2023/04/09 06:54:35;;;;;;;6.83;5.90;;;;;;;9.93;54.19;100124.06;5061678;28;20232;-83
2023/04/09 06:57:01;;;;;;;8.77;6.80;;;;;;;9.86;54.49;100127.94;5063944;28;20213;-84
2023/04/09 06:59:26;;;;;;;7.50;6.10;;;;;;;9.79;55.00;100120.47;5066008;28;20198;-83
2023/04/09 07:01:51;;;;;;;6.50;5.17;;;;;;;9.77;55.08;100122.31;5063609;28;20220;-86
2023/04/09 07:04:17;;;;;;;8.40;5.70;;;;;;;9.77;55.11;100128.41;5049854;28;20445;-83
2023/04/09 07:06:42;;;;;;;7.73;6.50;;;;;;;9.79;54.92;100128.34;5064067;28;20190;-84
2023/04/09 07:09:08;;;;;;;7.27;6.50;;;;;;;9.84;54.75;100131.59;5056753;28;20271;-83
2023/04/09 07:11:33;;;;;;;8.60;6.47;;;;;;;9.87;54.57;100129.63;5061441;28;20379;-83
2023/04/09 07:13:59;;;;;;;9.20;5.83;;;;;;;9.91;54.20;100133.81;5052552;28;20202;-85
2023/04/09 07:16:24;;;;;;;7.73;5.73;;;;;;;10.00;54.08;100123.75;5043753;28;20193;-83
2023/04/09 07:18:51;;;;;;;8.73;6.70;;;;;;;10.08;53.85;100130.28;5033871;28;20288;-82
2023/04/09 07:21:16;;;;;;;6.70;6.00;;;;;;;10.17;53.23;100126.31;5044849;28;20250;-83
2023/04/09 07:23:42;;;;;;;5.30;4.37;;;;;;;10.26;53.10;100128.47;5043773;28;20773;-82
2023/04/09 07:26:09;;;;;;;6.20;5.17;;;;;;;10.33;52.72;100135.09;5048949;28;20285;-88
2023/04/09 07:28:34;;;;;;;7.50;6.32;;;;;;;10.45;52.67;100135.34;5060682;28;20208;-83
2023/04/09 07:31:01;;;;;;;9.80;6.20;;;;;;;11.01;51.75;100139.22;5067601;28;20569;-83
2023/04/09 07:33:28;;;;;;;6.53;5.07;;;;;;;11.95;49.64;100132.81;5063185;28;20735;-84
2023/04/09 07:35:53;;;;;;;5.80;5.03;;;;;;;12.93;47.36;100135.47;5062050;28;20194;-83
2023/04/09 07:38:19;;;;;;;5.70;5.07;;;;;;;13.88;44.85;100130.00;5065231;28;20209;-85
2023/04/09 07:40:44;;;;;;;6.00;4.60;;;;;;;14.77;43.14;100126.38;5064631;28;20201;-85
2023/04/09 07:43:10;;;;;;;;;;;;;;;15.67;41.59;100132.00;5061852;28;20283;-84
2023/04/09 07:45:35;;;;;;;5.90;5.07;;;;;;;16.75;39.25;100124.41;5061753;28;20900;-84
2023/04/09 07:48:01;;;;;;;7.70;5.30;;;;;;;17.81;36.43;100120.13;5062492;28;20450;-84
2023/04/09 07:50:26;;;;;;;4.47;3.93;;;;;;;18.32;35.32;100113.91;5063035;28;21038;-84
2023/04/09 07:52:51;;;;;;;5.33;4.40;;;;;;;18.67;34.68;100116.09;5063460;28;20197;-84
2023/04/09 07:55:17;;;;;;;6.10;4.10;;;;;;;18.79;34.43;100117.69;5062775;28;20202;-83
2023/04/09 07:57:44;;;;;;;6.00;4.87;;;;;;;18.97;34.24;100125.00;5065616;28;20192;-84
2023/04/09 08:00:10;;;;;;;6.10;5.50;;;;;;;19.19;32.89;100114.06;5058253;28;20477;-84
2023/04/09 08:02:42;;;;;;;6.63;5.70;;;;;;;19.21;32.39;100105.94;5063711;28;20235;-83
2023/04/09 08:05:08;;;;;;;7.33;5.90;;;;;;;19.11;32.20;100113.09;5063697;28;20190;-84
2023/04/09 08:07:33;;;;;;;6.27;4.80;;;;;;;18.95;31.83;100117.13;5067686;28;20450;-84
2023/04/09 08:09:59;;;;;;;5.37;4.83;;;;;;;18.76;32.26;100115.28;5056193;28;20247;-84
2023/04/09 08:12:24;;;;;;;5.47;4.90;;;;;;;18.78;32.06;100121.31;5056634;28;20233;-84
2023/04/09 08:14:50;;;;;;;5.00;4.20;;;;;;;18.96;32.10;100118.00;5065431;28;20186;-84
2023/04/09 08:17:15;;;;;;;4.80;4.13;;;;;;;19.27;31.45;100112.53;5060125;28;20205;-86
2023/04/09 08:19:41;;;;;;;4.70;4.30;;;;;;;19.58;31.11;100114.03;5055301;28;20213;-85
2023/04/09 08:22:06;;;;;;;5.50;4.17;;;;;;;19.71;30.45;100112.91;5058448;28;20202;-84
2023/04/09 08:24:31;;;;;;;4.90;4.40;;;;;;;19.50;30.10;100113.91;5059989;28;20227;-83
2023/04/09 08:26:57;;;;;;;4.37;3.97;;;;;;;19.17;30.15;100125.81;5057654;28;20206;-83
2023/04/09 08:29:22;;;;;;;4.73;4.33;;;;;;;18.78;30.37;100113.34;5057580;28;20760;-83
2023/04/09 08:31:48;;;;;;;6.13;4.03;;;;;;;18.70;30.50;100112.31;5049601;28;20723;-85
2023/04/09 08:34:16;;;;;;;4.10;3.70;;;;;;;18.86;30.49;100111.81;5055416;28;20182;-83
2023/04/09 08:36:44;;;;;;;4.88;4.35;;;;;;;19.05;30.46;100111.81;5056716;28;20708;-84
2023/04/09 08:39:10;;;;;;;4.60;4.10;;;;;;;18.94;29.75;100109.31;5055183;28;20328;-83
2023/04/09 08:41:41;;;;;;;5.13;3.47;;;;;;;18.94;29.94;100111.97;5053225;28;20258;-84
2023/04/09 08:44:06;;;;;;;4.03;3.38;;;;;;;19.07;29.41;100109.88;5054952;28;20213;-83
2023/04/09 08:46:35;;;;;;;4.60;3.63;;;;;;;19.22;29.10;100105.78;5040599;28;20174;-83
2023/04/09 08:49:00;;;;;;;4.30;3.10;;;;;;;19.30;29.02;100105.06;5060276;28;20201;-84
2023/04/09 08:51:27;;;;;;;3.20;2.83;;;;;;;19.15;29.32;100107.34;5048273;28;20210;-87
2023/04/09 08:53:57;;;;;;;3.30;3.00;;;;;;;18.97;29.59;100109.03;5042473;28;20536;-84
2023/04/09 08:56:23;;;;;;;5.10;2.70;;;;;;;18.76;29.98;100101.16;5036751;28;20236;-83
2023/04/09 08:58:49;;;;;;;3.57;3.27;;;;;;;18.45;30.20;100105.69;5037224;28;20287;-86
2023/04/09 09:01:28;;;;;;;4.43;3.40;;;;;;;18.22;30.62;100108.53;5047255;28;20591;-87
2023/04/09 09:04:03;;;;;;;3.30;2.97;;;;;;;17.59;31.16;100115.75;5038066;28;20264;-86
2023/04/09 09:06:41;;;;;;;5.10;4.30;;;;;;;17.16;31.98;100114.88;5054176;28;20201;-83
2023/04/09 09:09:14;;;;;;;3.15;2.85;;;;;;;17.03;32.26;100116.88;5054381;28;21067;-85
2023/04/09 09:11:42;;;;;;;3.38;2.88;;;;;;;17.05;32.27;100108.81;5035123;28;20257;-86
2023/04/09 09:14:10;;;;;;;4.72;3.22;;;;;;;16.94;32.51;100115.81;5048826;28;20237;-84
2023/04/09 09:16:43;;;;;;;3.40;2.60;;;;;;;16.83;32.42;100115.88;5039935;28;20248;-85
2023/04/09 09:19:27;;;;;;;3.53;3.22;;;;;;;16.90;31.95;100113.53;5036604;28;20297;-86
2023/04/09 09:21:57;;;;;;;4.72;3.88;;;;;;;16.75;32.24;100113.81;5036858;28;20236;-84
2023/04/09 09:24:23;;;;;;;4.57;3.40;;;;;;;16.73;32.51;100106.94;5039865;28;20216;-86
2023/04/09 09:26:48;;;;;;;3.63;3.30;;;;;;;16.83;32.53;100099.09;5038102;28;20873;-84
2023/04/09 09:29:14;;;;;;;3.70;3.40;;;;;;;16.79;32.30;100095.84;5041136;28;20247;-83
2023/04/09 09:31:48;;;;;;;3.93;3.57;;;;;;;16.48;33.10;100097.47;5038852;28;20206;-81
2023/04/09 09:34:15;;;;;;;4.25;3.85;;;;;;;16.46;33.46;100094.09;5043251;28;21133;-82
2023/04/09 09:36:41;;;;;;;5.35;4.85;;;;;;;16.51;34.08;100092.75;5051943;28;20230;-83
2023/04/09 09:39:10;;;;;;;4.93;4.50;;;;;;;16.47;34.54;100094.00;5039675;28;20314;-81
2023/04/09 09:41:37;;;;;;;5.28;4.10;;;;;;;16.45;34.94;100090.59;5038413;28;20257;-83
2023/04/09 09:44:05;;;;;;;4.80;3.50;;;;;;;16.56;34.99;100089.75;5041415;28;20301;-82
2023/04/09 09:46:37;;;;;;;3.88;3.53;;;;;;;16.58;34.97;100090.47;5048981;28;20582;-82
2023/04/09 09:49:02;;;;;;;4.32;3.78;;;;;;;16.58;34.91;100093.13;5052256;28;20203;-83
2023/04/09 09:51:30;;;;;;;3.90;3.50;;;;;;;16.68;34.86;100082.59;5040652;28;20239;-83
2023/04/09 09:53:56;;;;;;;4.35;3.85;;;;;;;16.86;34.74;100075.81;5044533;28;20207;-83
2023/04/09 09:56:25;;;;;;;4.57;3.05;;;;;;;17.08;34.50;100072.22;5047323;28;20246;-81
2023/04/09 09:59:05;;;;;;;5.50;4.03;;;;;;;17.18;34.52;100070.47;5040092;28;20465;-81
2023/04/09 10:01:31;;;;;;;4.35;3.67;;;;;;;17.06;34.70;100068.84;5031367;28;20218;-82
2023/04/09 10:03:59;;;;;;;3.92;3.60;;;;;;;17.05;34.73;100061.84;5035782;28;20198;-81
2023/04/09 10:06:26;;;;;;;3.17;2.85;;;;;;;17.15;34.33;100065.44;5041181;28;20211;-81
2023/04/09 10:08:56;;;;;;;3.10;2.90;;;;;;;17.24;33.64;100067.31;5034294;28;20207;-82
2023/04/09 10:11:22;;;;;;;2.53;2.33;;;;;;;17.32;33.23;100071.97;5041378;28;20584;-82
2023/04/09 10:13:50;;;;;;;3.20;2.90;;;;;;;17.35;33.04;100065.56;5039803;28;20205;-83
2023/04/09 10:16:16;;;;;;;4.05;3.70;;;;;;;17.02;31.77;100065.59;5039469;28;20457;-82
2023/04/09 10:18:42;;;;;;;3.20;2.90;;;;;;;16.88;32.30;100063.28;5046585;28;20239;-81
2023/04/09 10:21:25;;;;;;;3.92;3.58;;;;;;;16.83;32.14;100054.84;5040614;28;20475;-81
2023/04/09 10:23:51;;;;;;;4.47;3.42;;;;;;;16.86;32.29;100057.25;5034264;28;20200;-82
2023/04/09 10:26:18;;;;;;;3.60;3.30;;;;;;;16.84;31.88;100066.28;5041171;28;20202;-80
2023/04/09 10:28:44;;;;;;;3.85;3.40;;;;;;;16.80;31.70;100060.41;5029756;28;20695;-82
2023/04/09 10:31:10;;;;;;;3.23;2.93;;;;;;;16.85;31.76;100055.56;5034716;28;20206;-82
2023/04/09 10:33:37;;;;;;;3.38;3.08;;;;;;;16.97;31.68;100046.56;5026148;28;20231;-82
2023/04/09 10:36:08;;;;;;;3.35;2.85;;;;;;;16.95;31.83;100050.31;5040333;28;20203;-82
2023/04/09 10:38:34;;;;;;;3.45;3.13;;;;;;;17.03;32.20;100054.00;5032313;28;20227;-83
2023/04/09 10:41:30;;;;;;;4.00;3.70;;;;;;;17.02;32.54;100054.16;5044047;28;20215;-82
2023/04/09 10:43:56;;;;;;;5.03;3.60;;;;;;;17.02;33.06;100056.81;5027438;28;20253;-81
2023/04/09 10:46:30;;;;;;;4.55;3.50;;;;;;;17.14;33.06;100046.97;5038080;28;20211;-82
2023/04/09 10:49:14;;;;;;;4.45;3.65;;;;;;;17.15;32.55;100035.41;5032027;28;20228;-82
2023/04/09 10:51:40;;;;;;;4.22;3.80;;;;;;;17.19;32.71;100034.16;5039747;28;20237;-82
2023/04/09 10:54:32;;;;;;;3.63;3.33;;;;;;;17.23;32.99;100040.91;5040689;28;20205;-82
2023/04/09 10:57:06;;;;;;;3.17;2.88;;;;;;;17.32;32.90;100033.97;5036213;28;20602;-82
2023/04/09 10:59:36;;;;;;;4.18;3.60;;;;;;;17.45;32.73;100030.13;5025872;28;20270;-82
2023/04/09 11:02:26;;;;;;;3.60;2.73;;;;;;;17.58;32.93;100026.41;5034694;28;20230;-82
2023/04/09 11:05:16;;;;;;;3.30;3.00;;;;;;;17.71;32.61;100032.34;5033418;28;20458;-82
2023/04/09 11:07:52;;;;;;;3.07;2.80;;;;;;;17.70;32.69;100025.34;5031618;28;21038;-81
2023/04/09 11:10:18;;;;;;;3.55;3.25;;;;;;;17.70;32.32;100034.16;5039954;22;20484;-81
2023/04/09 11:12:46;;;;;;;2.97;2.67;;;;;;;17.70;32.31;100023.53;5030674;28;20700;-81
2023/04/09 11:15:17;;;;;;;2.93;2.57;;;;;;;17.50;31.32;100020.91;5048248;28;20470;-81
2023/04/09 11:17:43;;;;;;;2.87;2.57;;;;;;;17.30;31.38;100026.13;5061041;28;20661;-81
2023/04/09 11:20:09;;;;;;;2.63;2.43;;;;;;;17.23;31.68;100017.00;5060819;28;20501;-81
2023/04/09 11:22:35;;;;;;;3.40;2.40;;;;;;;17.34;31.36;100021.41;5062788;28;20970;-81
2023/04/09 11:25:01;;;;;;;2.60;2.20;;;;;;;17.43;31.15;100021.44;5064912;28;20207;-81
2023/04/09 11:27:26;;;;;;;2.60;2.40;;;;;;;17.43;30.81;100009.97;5064142;28;20228;-81
2023/04/09 11:29:55;;;;;;;2.60;2.00;;;;;;;17.42;30.60;100009.16;5062900;28;20274;-82
2023/04/09 11:32:20;;;;;;;3.60;2.80;;;;;;;17.20;30.32;100006.63;5062009;28;20198;-81